createdAt,value
2023-03-06T00:01:07.098Z,21.47
2023-03-06T00:03:34.012Z,23.43
2023-03-06T00:06:01.142Z,24.33
2023-03-06T00:08:28.799Z,25.67
2023-03-06T00:10:56.480Z,23.33
2023-03-06T00:13:23.751Z,28.50
2023-03-06T00:15:50.414Z,22.83
2023-03-06T00:18:17.350Z,21.87
2023-03-06T00:20:44.154Z,23.87
2023-03-06T00:23:11.501Z,25.23
2023-03-06T00:25:38.927Z,23.23
2023-03-06T00:28:06.039Z,22.67
2023-03-06T00:30:32.931Z,24.27
2023-03-06T00:32:59.450Z,25.60
2023-03-06T00:35:26.167Z,29.63
2023-03-06T00:37:52.703Z,23.13
2023-03-06T00:40:21.165Z,24.90
2023-03-06T00:42:48.404Z,21.93
2023-03-06T00:45:15.245Z,24.63
2023-03-06T00:47:42.321Z,23.20
2023-03-06T00:50:09.754Z,22.57
2023-03-06T00:52:36.532Z,29.37
2023-03-06T00:55:03.324Z,23.83
2023-03-06T00:57:30.002Z,21.73
2023-03-06T00:59:56.570Z,24.60
2023-03-06T01:02:23.181Z,28.77
2023-03-06T01:04:49.727Z,27.10
2023-03-06T01:07:16.376Z,21.07
2023-03-06T01:09:42.910Z,24.57
2023-03-06T01:12:09.693Z,21.83
2023-03-06T01:14:36.211Z,21.77
2023-03-06T01:17:03.023Z,23.33
2023-03-06T01:19:29.518Z,25.33
2023-03-06T01:21:56.126Z,22.90
2023-03-06T01:24:25.742Z,23.93
2023-03-06T01:26:52.499Z,25.10
2023-03-06T01:29:19.033Z,26.00
2023-03-06T01:31:45.590Z,26.20
2023-03-06T01:34:12.281Z,18.20
2023-03-06T01:36:38.756Z,19.13
2023-03-06T01:39:05.337Z,23.20
2023-03-06T01:41:32.884Z,22.33
2023-03-06T01:43:59.744Z,21.30
2023-03-06T01:46:29.517Z,26.77
2023-03-06T01:49:14.680Z,20.20
2023-03-06T01:51:45.771Z,21.70
2023-03-06T01:54:16.406Z,19.63
2023-03-06T01:56:44.756Z,20.20
2023-03-06T01:59:11.537Z,21.23
2023-03-06T02:01:39.900Z,25.00
2023-03-06T02:04:06.923Z,22.23
2023-03-06T02:06:38.453Z,22.30
2023-03-06T02:09:06.298Z,24.47
2023-03-06T02:11:32.961Z,19.47
2023-03-06T02:13:59.537Z,26.83
2023-03-06T02:16:28.742Z,21.63
2023-03-06T02:18:55.847Z,18.17
2023-03-06T02:21:40.510Z,21.70
2023-03-06T02:24:13.188Z,20.17
2023-03-06T02:26:41.164Z,22.63
2023-03-06T02:29:08.289Z,19.63
2023-03-06T02:31:35.616Z,21.90
2023-03-06T02:34:13.939Z,27.40
2023-03-06T02:36:54.043Z,21.80
2023-03-06T02:39:24.255Z,23.60
2023-03-06T02:41:50.996Z,19.83
2023-03-06T02:44:17.551Z,24.20
2023-03-06T02:46:44.194Z,25.20
2023-03-06T02:49:10.680Z,22.43
2023-03-06T02:51:37.236Z,25.73
2023-03-06T02:54:04.061Z,25.30
2023-03-06T02:56:30.690Z,21.13
2023-03-06T02:58:57.418Z,22.03
2023-03-06T03:01:24.259Z,20.70
2023-03-06T03:03:50.841Z,22.60
2023-03-06T03:06:17.528Z,18.30
2023-03-06T03:08:44.003Z,20.50
2023-03-06T03:11:10.620Z,22.93
2023-03-06T03:13:37.642Z,23.87
2023-03-06T03:16:09.370Z,18.30
2023-03-06T03:18:36.150Z,18.63
2023-03-06T03:21:07.516Z,21.10
2023-03-06T03:23:34.081Z,21.10
2023-03-06T03:26:11.326Z,26.57
2023-03-06T03:28:38.162Z,19.57
2023-03-06T03:31:05.604Z,19.80
2023-03-06T03:33:32.853Z,20.37
2023-03-06T03:36:00.033Z,24.27
2023-03-06T03:38:27.200Z,27.20
2023-03-06T03:40:53.700Z,20.57
2023-03-06T03:43:20.290Z,19.17
2023-03-06T03:45:46.903Z,17.57
2023-03-06T03:48:13.516Z,17.77
2023-03-06T03:50:39.955Z,20.67
2023-03-06T03:53:06.765Z,15.70
2023-03-06T03:55:33.295Z,16.17
2023-03-06T03:57:59.804Z,19.47
2023-03-06T04:00:26.263Z,23.13
2023-03-06T04:02:52.848Z,19.00
2023-03-06T04:05:19.625Z,18.30
2023-03-06T04:07:46.128Z,15.27
2023-03-06T04:10:13.294Z,17.20
2023-03-06T04:12:39.932Z,19.27
2023-03-06T04:15:07.743Z,22.97
2023-03-06T04:17:35.201Z,21.43
2023-03-06T04:20:04.123Z,19.07
2023-03-06T04:22:30.833Z,21.93
2023-03-06T04:24:57.290Z,21.60
2023-03-06T04:27:24.011Z,19.33
2023-03-06T04:29:50.577Z,23.07
2023-03-06T04:32:18.304Z,22.93
2023-03-06T04:34:46.194Z,20.17
2023-03-06T04:37:23.999Z,23.67
2023-03-06T04:39:50.827Z,23.13
2023-03-06T04:42:17.933Z,26.00
2023-03-06T04:44:44.616Z,21.67
2023-03-06T04:47:11.708Z,21.60
2023-03-06T04:49:38.218Z,25.60
2023-03-06T04:52:04.942Z,26.27
2023-03-06T04:54:31.466Z,22.10
2023-03-06T04:56:58.490Z,26.60
2023-03-06T04:59:25.114Z,19.67
2023-03-06T05:01:51.961Z,20.97
2023-03-06T05:04:18.569Z,29.30
2023-03-06T05:06:45.061Z,25.07
2023-03-06T05:09:11.510Z,24.77
2023-03-06T05:11:38.063Z,19.20
2023-03-06T05:14:04.727Z,23.43
2023-03-06T05:16:31.260Z,18.83
2023-03-06T05:18:57.865Z,28.60
2023-03-06T05:21:24.405Z,24.23
2023-03-06T05:23:51.006Z,26.07
2023-03-06T05:26:17.661Z,26.17
2023-03-06T05:28:44.185Z,26.07
2023-03-06T05:31:10.795Z,19.70
2023-03-06T05:33:37.458Z,35.37
2023-03-06T05:36:04.713Z,25.17
2023-03-06T05:38:32.211Z,23.30
2023-03-06T05:40:58.705Z,22.93
2023-03-06T05:43:25.253Z,25.27
2023-03-06T05:45:53.114Z,31.53
2023-03-06T05:48:19.645Z,19.57
2023-03-06T05:50:46.130Z,23.80
2023-03-06T05:53:12.731Z,23.90
2023-03-06T05:55:39.243Z,26.23
2023-03-06T05:58:05.741Z,27.90
2023-03-06T06:00:32.394Z,24.60
2023-03-06T06:03:01.822Z,25.47
2023-03-06T06:05:28.345Z,33.30
2023-03-06T06:07:54.952Z,26.20
2023-03-06T06:10:21.500Z,28.50
2023-03-06T06:12:48.140Z,37.67
2023-03-06T06:15:15.364Z,26.13
2023-03-06T06:17:42.143Z,29.20
2023-03-06T06:20:09.291Z,30.77
2023-03-06T06:22:38.008Z,33.43
2023-03-06T06:25:05.857Z,33.40
2023-03-06T06:27:32.428Z,30.13
2023-03-06T06:29:58.937Z,21.13
2023-03-06T06:32:25.531Z,41.30
2023-03-06T06:34:52.057Z,44.60
2023-03-06T06:37:18.634Z,29.10
2023-03-06T06:39:45.208Z,32.87
2023-03-06T06:42:29.290Z,42.87
2023-03-06T06:44:58.110Z,43.43
2023-03-06T06:47:25.781Z,27.10
2023-03-06T06:49:53.898Z,27.83
2023-03-06T06:52:20.644Z,28.13
2023-03-06T06:54:47.479Z,33.70
2023-03-06T06:57:14.418Z,24.40
2023-03-06T06:59:41.035Z,29.60
2023-03-06T07:02:07.770Z,32.90
2023-03-06T07:04:34.334Z,28.07
2023-03-06T07:07:01.175Z,28.03
2023-03-06T07:09:27.812Z,36.20
2023-03-06T07:11:54.453Z,33.53
2023-03-06T07:14:21.121Z,26.70
2023-03-06T07:16:47.634Z,33.53
2023-03-06T07:19:14.538Z,30.67
2023-03-06T07:21:41.532Z,29.33
2023-03-06T07:24:08.305Z,35.70
2023-03-06T07:26:35.067Z,33.97
2023-03-06T07:29:02.293Z,28.20
2023-03-06T07:31:29.078Z,26.73
2023-03-06T07:33:56.049Z,34.07
2023-03-06T07:36:23.671Z,27.60
2023-03-06T07:38:50.342Z,32.83
2023-03-06T07:41:20.437Z,29.07
2023-03-06T07:43:49.218Z,34.40
2023-03-06T07:46:16.010Z,30.17
2023-03-06T07:48:43.087Z,31.50
2023-03-06T07:51:16.362Z,29.70
2023-03-06T07:53:43.238Z,29.73
2023-03-06T07:56:11.218Z,31.20
2023-03-06T07:58:39.190Z,32.40
2023-03-06T08:01:07.816Z,41.27
2023-03-06T08:03:35.022Z,28.93
2023-03-06T08:06:06.680Z,25.03
2023-03-06T08:08:35.302Z,34.77
2023-03-06T08:11:01.920Z,32.27
2023-03-06T08:13:28.567Z,32.63
2023-03-06T08:15:56.350Z,31.23
2023-03-06T08:18:22.893Z,36.60
2023-03-06T08:20:49.491Z,30.83
2023-03-06T08:23:16.246Z,29.77
2023-03-06T08:25:42.799Z,33.20
2023-03-06T08:28:09.493Z,35.50
2023-03-06T08:30:36.017Z,30.70
2023-03-06T08:33:02.737Z,37.63
2023-03-06T08:35:29.291Z,32.97
2023-03-06T08:37:55.944Z,31.50
2023-03-06T08:40:23.576Z,32.90
2023-03-06T08:42:50.138Z,33.07
2023-03-06T08:45:16.964Z,40.07
2023-03-06T08:47:43.497Z,30.07
2023-03-06T08:50:11.277Z,32.77
2023-03-06T08:52:37.800Z,37.83
2023-03-06T08:55:05.473Z,33.70
2023-03-06T08:57:32.184Z,33.90
2023-03-06T08:59:58.883Z,28.23
2023-03-06T09:02:25.516Z,28.63
2023-03-06T09:04:52.101Z,26.60
2023-03-06T09:07:18.641Z,37.70
2023-03-06T09:09:45.132Z,32.27
2023-03-06T09:12:11.809Z,33.53
2023-03-06T09:14:38.272Z,32.90
2023-03-06T09:17:04.936Z,30.37
2023-03-06T09:19:31.445Z,30.07
2023-03-06T09:22:00.577Z,32.43
2023-03-06T09:24:27.125Z,32.83
2023-03-06T09:26:53.743Z,34.73
2023-03-06T09:29:20.182Z,34.13
2023-03-06T09:31:46.843Z,35.70
2023-03-06T09:34:13.576Z,33.80
2023-03-06T09:36:55.553Z,30.60
2023-03-06T09:39:24.113Z,26.33
2023-03-06T09:41:50.898Z,31.50
2023-03-06T09:44:21.055Z,26.43
2023-03-06T09:47:15.537Z,31.00
2023-03-06T09:49:59.727Z,36.23
2023-03-06T09:52:26.268Z,32.17
2023-03-06T09:54:59.221Z,30.07
2023-03-06T09:57:28.469Z,28.43
2023-03-06T09:59:58.064Z,32.03
2023-03-06T10:02:49.152Z,34.00
2023-03-06T10:05:27.136Z,35.83
2023-03-06T10:08:02.973Z,31.60
2023-03-06T10:10:58.120Z,32.37
2023-03-06T10:13:33.286Z,26.80
2023-03-06T10:16:23.173Z,34.47
2023-03-06T10:18:50.688Z,26.27
2023-03-06T10:21:36.301Z,34.60
2023-03-06T10:24:26.856Z,26.93
2023-03-06T10:27:10.985Z,22.90
2023-03-06T10:30:01.576Z,27.00
2023-03-06T10:32:46.292Z,29.90
2023-03-06T10:35:20.182Z,30.33
2023-03-06T10:37:47.214Z,32.37
2023-03-06T10:40:20.790Z,25.93
2023-03-06T10:42:47.340Z,27.07
2023-03-06T10:45:15.934Z,33.10
2023-03-06T10:47:43.432Z,60.37
2023-03-06T10:50:31.528Z,68.70
2023-03-06T10:53:23.256Z,36.00
2023-03-06T10:55:59.957Z,25.17
2023-03-06T10:58:32.286Z,35.50
2023-03-06T11:01:02.547Z,36.20
2023-03-06T11:03:29.477Z,29.40
2023-03-06T11:06:04.136Z,23.07
2023-03-06T11:08:32.016Z,25.90
2023-03-06T11:11:03.935Z,26.13
2023-03-06T11:13:33.698Z,29.60
2023-03-06T11:16:04.635Z,27.83
2023-03-06T11:18:35.712Z,25.47
2023-03-06T11:21:07.459Z,26.03
2023-03-06T11:23:40.782Z,27.93
2023-03-06T11:26:16.422Z,23.70
2023-03-06T11:28:47.474Z,24.10
2023-03-06T11:31:17.363Z,29.77
2023-03-06T11:33:55.470Z,28.73
2023-03-06T11:36:36.459Z,34.50
2023-03-06T11:39:04.566Z,29.63
2023-03-06T11:41:53.067Z,29.90
2023-03-06T11:44:29.868Z,34.40
2023-03-06T11:47:07.805Z,28.27
2023-03-06T11:49:42.198Z,29.33
2023-03-06T11:52:19.989Z,29.83
2023-03-06T11:54:52.038Z,30.40
2023-03-06T11:57:21.980Z,33.20
2023-03-06T11:59:51.599Z,24.57
2023-03-06T12:02:22.110Z,32.73
2023-03-06T12:04:53.092Z,26.77
2023-03-06T12:07:27.410Z,31.30
2023-03-06T12:10:18.430Z,23.87
2023-03-06T12:12:56.514Z,30.03
2023-03-06T12:15:42.963Z,27.60
2023-03-06T12:18:31.201Z,25.43
2023-03-06T12:21:07.506Z,25.73
2023-03-06T12:23:37.094Z,34.07
2023-03-06T12:26:22.471Z,28.03
2023-03-06T12:28:59.252Z,29.50
2023-03-06T12:31:40.692Z,20.70
2023-03-06T12:34:36.589Z,27.03
2023-03-06T12:37:08.825Z,27.90
2023-03-06T12:39:50.602Z,32.10
2023-03-06T12:42:40.381Z,28.27
2023-03-06T12:45:37.165Z,26.00
2023-03-06T12:48:09.814Z,21.07
2023-03-06T12:50:40.031Z,28.33
2023-03-06T12:53:08.554Z,23.33
2023-03-06T12:55:46.802Z,27.57
2023-03-06T12:58:55.677Z,31.30
2023-03-06T13:01:54.042Z,24.87
2023-03-06T13:04:39.363Z,26.47
2023-03-06T13:07:41.053Z,25.30
2023-03-06T13:10:26.942Z,26.30
2023-03-06T13:13:05.028Z,29.60
2023-03-06T13:15:40.807Z,27.30
2023-03-06T13:18:22.564Z,25.20
2023-03-06T13:20:53.089Z,23.40
2023-03-06T13:23:43.338Z,21.53
2023-03-06T13:26:25.085Z,27.60
2023-03-06T13:28:57.749Z,28.63
2023-03-06T13:31:28.474Z,31.20
2023-03-06T13:34:00.630Z,26.47
2023-03-06T13:36:34.558Z,29.53
2023-03-06T13:39:11.509Z,25.07
2023-03-06T13:41:57.865Z,25.10
2023-03-06T13:44:24.525Z,27.13
2023-03-06T13:47:18.641Z,27.20
2023-03-06T13:49:46.926Z,25.03
2023-03-06T13:52:28.278Z,32.00
2023-03-06T13:55:00.850Z,25.30
2023-03-06T13:57:52.781Z,32.03
2023-03-06T14:00:44.186Z,30.50
2023-03-06T14:03:10.642Z,27.53
2023-03-06T14:05:55.637Z,26.83
2023-03-06T14:08:30.872Z,28.17
2023-03-06T14:11:00.495Z,25.03
2023-03-06T14:13:38.399Z,25.57
2023-03-06T14:16:25.107Z,33.70
2023-03-06T14:18:54.051Z,31.50
2023-03-06T14:21:31.181Z,29.07
2023-03-06T14:24:05.400Z,29.67
2023-03-06T14:26:41.789Z,26.63
2023-03-06T14:29:22.890Z,24.10
2023-03-06T14:31:51.359Z,27.93
2023-03-06T14:34:21.035Z,31.70
2023-03-06T14:36:52.323Z,26.10
2023-03-06T14:39:43.551Z,24.77
2023-03-06T14:42:24.970Z,28.73
2023-03-06T14:45:16.339Z,28.60
2023-03-06T14:47:43.846Z,28.53
2023-03-06T14:50:25.775Z,29.80
2023-03-06T14:52:56.327Z,25.27
2023-03-06T14:55:26.485Z,28.47
2023-03-06T14:58:10.755Z,32.77
2023-03-06T15:00:41.489Z,32.07
2023-03-06T15:03:15.505Z,34.90
2023-03-06T15:05:44.244Z,24.37
2023-03-06T15:08:14.029Z,22.03
2023-03-06T15:10:40.518Z,25.93
2023-03-06T15:13:24.774Z,27.90
2023-03-06T15:15:58.408Z,30.50
2023-03-06T15:18:39.092Z,24.87
2023-03-06T15:21:07.860Z,37.57
2023-03-06T15:23:42.955Z,31.97
2023-03-06T15:26:27.023Z,25.93
2023-03-06T15:29:13.747Z,30.17
2023-03-06T15:31:44.592Z,25.67
2023-03-06T15:34:11.450Z,31.03
2023-03-06T15:36:39.422Z,30.27
2023-03-06T15:39:26.498Z,25.00
2023-03-06T15:42:01.403Z,24.97
2023-03-06T15:44:30.810Z,23.90
2023-03-06T15:47:07.818Z,27.93
2023-03-06T15:49:37.352Z,25.30
2023-03-06T15:52:03.901Z,24.10
2023-03-06T15:54:32.836Z,29.90
2023-03-06T15:56:59.986Z,35.57
2023-03-06T15:59:31.329Z,31.40
2023-03-06T16:02:00.384Z,27.13
2023-03-06T16:04:27.505Z,25.87
2023-03-06T16:06:54.141Z,28.80
2023-03-06T16:09:20.674Z,39.63
2023-03-06T16:11:47.367Z,28.80
2023-03-06T16:14:21.053Z,41.47
2023-03-06T16:16:48.227Z,32.27
2023-03-06T16:19:25.888Z,31.77
2023-03-06T16:21:53.257Z,36.50
2023-03-06T16:24:19.801Z,28.97
2023-03-06T16:26:50.953Z,31.40
2023-03-06T16:29:23.163Z,29.93
2023-03-06T16:31:49.756Z,22.57
2023-03-06T16:34:16.811Z,28.87
2023-03-06T16:36:43.441Z,29.13
2023-03-06T16:39:17.567Z,29.50
2023-03-06T16:41:45.989Z,24.00
2023-03-06T16:44:13.426Z,22.87
2023-03-06T16:46:42.323Z,28.67
2023-03-06T16:49:15.263Z,35.23
2023-03-06T16:51:42.056Z,34.43
2023-03-06T16:54:08.656Z,24.90
2023-03-06T16:56:35.204Z,22.93
2023-03-06T16:59:01.691Z,28.70
2023-03-06T17:01:28.182Z,28.97
2023-03-06T17:03:54.895Z,26.07
2023-03-06T17:06:22.419Z,31.17
2023-03-06T17:08:50.660Z,31.00
2023-03-06T17:11:20.238Z,30.20
2023-03-06T17:13:47.600Z,32.43
2023-03-06T17:16:16.394Z,27.77
2023-03-06T17:18:44.212Z,25.87
2023-03-06T17:21:11.378Z,24.97
2023-03-06T17:23:38.214Z,25.23
2023-03-06T17:26:07.462Z,35.90
2023-03-06T17:28:35.529Z,44.43
2023-03-06T17:31:04.175Z,35.80
2023-03-06T17:33:31.026Z,45.27
2023-03-06T17:35:59.417Z,30.23
2023-03-06T17:38:27.300Z,27.63
2023-03-06T17:40:53.881Z,27.77
2023-03-06T17:43:20.780Z,33.90
2023-03-06T17:45:47.592Z,24.30
2023-03-06T17:48:14.376Z,29.77
2023-03-06T17:50:40.994Z,38.40
2023-03-06T17:53:07.509Z,27.23
2023-03-06T17:55:34.105Z,28.90
2023-03-06T17:58:00.597Z,33.50
2023-03-06T18:00:27.137Z,37.43
2023-03-06T18:02:53.700Z,33.03
2023-03-06T18:05:21.809Z,43.00
2023-03-06T18:07:48.523Z,38.17
2023-03-06T18:10:15.320Z,34.17
2023-03-06T18:12:41.962Z,35.63
2023-03-06T18:15:08.989Z,34.37
2023-03-06T18:17:35.601Z,29.57
2023-03-06T18:20:02.446Z,27.43
2023-03-06T18:22:29.054Z,35.50
2023-03-06T18:24:56.098Z,43.97
2023-03-06T18:27:22.934Z,45.40
2023-03-06T18:29:49.624Z,27.87
2023-03-06T18:32:16.296Z,27.03
2023-03-06T18:34:43.075Z,33.33
2023-03-06T18:37:09.709Z,36.00
2023-03-06T18:39:36.423Z,34.07
2023-03-06T18:42:03.169Z,32.13
2023-03-06T18:44:29.762Z,25.60
2023-03-06T18:46:56.286Z,27.10
2023-03-06T18:49:22.973Z,27.83
2023-03-06T18:51:50.394Z,39.07
2023-03-06T18:54:16.996Z,31.40
2023-03-06T18:56:44.722Z,28.20
2023-03-06T18:59:18.559Z,26.33
2023-03-06T19:01:46.239Z,31.67
2023-03-06T19:04:12.981Z,30.60
2023-03-06T19:06:40.012Z,26.60
2023-03-06T19:09:07.300Z,22.00
2023-03-06T19:11:33.943Z,33.73
2023-03-06T19:14:00.797Z,27.47
2023-03-06T19:16:29.667Z,26.93
2023-03-06T19:18:57.318Z,23.30
2023-03-06T19:21:26.648Z,35.90
2023-03-06T19:23:53.388Z,36.23
2023-03-06T19:26:20.177Z,28.60
2023-03-06T19:28:47.336Z,32.80
2023-03-06T19:31:20.301Z,30.73
2023-03-06T19:33:48.927Z,27.70
2023-03-06T19:36:16.914Z,24.20
2023-03-06T19:38:43.457Z,24.47
2023-03-06T19:41:13.895Z,25.07
2023-03-06T19:43:41.446Z,20.80
2023-03-06T19:46:14.071Z,25.63
2023-03-06T19:48:41.426Z,26.57
2023-03-06T19:51:08.930Z,28.07
2023-03-06T19:53:35.637Z,26.10
2023-03-06T19:56:06.620Z,31.60
2023-03-06T19:58:33.417Z,26.37
2023-03-06T20:01:17.983Z,22.30
2023-03-06T20:03:44.623Z,30.03
2023-03-06T20:06:15.331Z,31.67
2023-03-06T20:08:42.970Z,26.50
2023-03-06T20:11:20.164Z,32.63
2023-03-06T20:13:47.755Z,28.00
2023-03-06T20:16:15.003Z,20.73
2023-03-06T20:18:41.547Z,24.47
2023-03-06T20:21:08.118Z,22.40
2023-03-06T20:23:35.103Z,38.47
2023-03-06T20:26:06.396Z,32.30
2023-03-06T20:28:33.290Z,25.60
2023-03-06T20:30:59.996Z,25.00
2023-03-06T20:33:27.087Z,31.23
2023-03-06T20:35:54.136Z,36.23
2023-03-06T20:38:20.873Z,33.30
2023-03-06T20:40:47.532Z,34.70
2023-03-06T20:43:14.107Z,31.20
2023-03-06T20:45:40.739Z,34.80
2023-03-06T20:48:07.594Z,25.60
2023-03-06T20:50:37.103Z,25.93
2023-03-06T20:53:04.206Z,27.90
2023-03-06T20:55:36.391Z,31.70
2023-03-06T20:58:02.987Z,29.23
2023-03-06T21:00:29.538Z,28.33
2023-03-06T21:02:56.041Z,24.93
2023-03-06T21:05:22.598Z,36.97
2023-03-06T21:07:49.156Z,26.33
2023-03-06T21:10:15.885Z,37.10
2023-03-06T21:12:42.611Z,25.30
2023-03-06T21:15:09.480Z,41.97
2023-03-06T21:17:36.100Z,31.27
2023-03-06T21:20:02.934Z,39.80
2023-03-06T21:22:30.342Z,54.20
2023-03-06T21:24:56.877Z,55.80
2023-03-06T21:27:23.552Z,35.60
2023-03-06T21:29:50.693Z,33.70
2023-03-06T21:32:17.403Z,29.40
2023-03-06T21:34:44.029Z,29.10
2023-03-06T21:37:10.741Z,33.93
2023-03-06T21:39:38.539Z,35.83
2023-03-06T21:42:05.313Z,31.23
2023-03-06T21:44:31.847Z,30.03
2023-03-06T21:46:58.415Z,31.23
2023-03-06T21:49:26.414Z,33.27
2023-03-06T21:51:53.633Z,24.60
2023-03-06T21:54:20.424Z,30.23
2023-03-06T21:56:47.068Z,28.90
2023-03-06T21:59:13.787Z,38.10
2023-03-06T22:01:42.604Z,28.13
2023-03-06T22:04:09.422Z,31.03
2023-03-06T22:06:38.214Z,24.53
2023-03-06T22:09:04.759Z,27.10
2023-03-06T22:11:31.673Z,25.33
2023-03-06T22:13:58.265Z,27.33
2023-03-06T22:16:24.927Z,32.60
2023-03-06T22:18:52.210Z,39.03
2023-03-06T22:21:20.772Z,37.20
2023-03-06T22:23:57.786Z,39.90
2023-03-06T22:26:24.771Z,44.90
2023-03-06T22:28:51.615Z,36.10
2023-03-06T22:31:29.096Z,43.13
2023-03-06T22:33:57.519Z,45.83
2023-03-06T22:36:24.428Z,47.67
2023-03-06T22:38:55.047Z,41.40
2023-03-06T22:41:21.711Z,42.20
2023-03-06T22:43:48.402Z,33.53
2023-03-06T22:46:16.815Z,40.73
2023-03-06T22:48:43.986Z,29.90
2023-03-06T22:51:16.231Z,32.53
2023-03-06T22:53:43.346Z,29.93
2023-03-06T22:56:12.855Z,38.40
2023-03-06T22:58:40.425Z,33.77
2023-03-06T23:01:09.033Z,41.77
2023-03-06T23:03:40.076Z,39.97
2023-03-06T23:06:26.877Z,34.67
2023-03-06T23:08:56.043Z,38.10
2023-03-06T23:11:23.535Z,37.70
2023-03-06T23:13:50.027Z,38.10
2023-03-06T23:16:16.535Z,45.73
2023-03-06T23:18:43.123Z,29.93
2023-03-06T23:21:11.965Z,32.10
2023-03-06T23:23:39.412Z,44.13
2023-03-06T23:26:10.677Z,30.37
2023-03-06T23:28:37.350Z,43.50
2023-03-06T23:31:08.118Z,35.50
2023-03-06T23:33:35.159Z,32.93
2023-03-06T23:36:03.355Z,31.43
2023-03-06T23:38:30.257Z,28.17
2023-03-06T23:40:56.757Z,28.87
2023-03-06T23:43:23.297Z,36.80
2023-03-06T23:45:54.091Z,35.53
2023-03-06T23:48:20.764Z,40.83
2023-03-06T23:50:47.323Z,33.80
2023-03-06T23:53:14.730Z,31.40
2023-03-06T23:55:42.395Z,38.90
2023-03-06T23:58:09.091Z,28.57
